createdAt,value
2022-10-05T00:00:02.706Z,9.02
2022-10-05T00:05:02.550Z,9.07
2022-10-05T00:10:03.085Z,9.49
2022-10-05T00:15:02.882Z,9.75
2022-10-05T00:20:02.546Z,9.96
2022-10-05T00:25:03.533Z,10.05
2022-10-05T00:30:06.458Z,10.14
2022-10-05T00:35:02.748Z,10.12
2022-10-05T00:40:02.864Z,9.92
2022-10-05T00:45:02.465Z,9.75
2022-10-05T00:50:03.325Z,9.51
2022-10-05T00:55:04.038Z,9.31
2022-10-05T01:00:02.516Z,8.81
2022-10-05T01:05:03.147Z,8.72
2022-10-05T01:10:02.861Z,8.6
2022-10-05T01:15:03.170Z,8.6
2022-10-05T01:20:03.008Z,8.4
2022-10-05T01:25:02.760Z,8.38
2022-10-05T01:30:02.430Z,8.84
2022-10-05T01:35:03.161Z,9.07
2022-10-05T01:40:02.820Z,8.96
2022-10-05T01:45:02.673Z,8.9
2022-10-05T01:50:03.230Z,8.87
2022-10-05T01:55:04.319Z,8.74
2022-10-05T02:00:02.761Z,8.53
2022-10-05T02:05:03.375Z,8.86
2022-10-05T02:10:03.062Z,8.85
2022-10-05T02:15:02.719Z,9.06
2022-10-05T02:20:02.543Z,9.21
2022-10-05T02:25:03.338Z,9.27
2022-10-05T02:30:02.986Z,9.32
2022-10-05T02:35:02.601Z,9.25
2022-10-05T02:40:03.254Z,8.84
2022-10-05T02:45:02.928Z,8.68
2022-10-05T02:50:02.561Z,8.78
2022-10-05T02:55:04.389Z,8.49
2022-10-05T03:00:02.822Z,8.1
2022-10-05T03:05:03.470Z,8.08
2022-10-05T03:10:02.859Z,8.1
2022-10-05T03:15:02.821Z,7.85
2022-10-05T03:20:03.459Z,8.14
2022-10-05T03:25:03.082Z,8.43
2022-10-05T03:30:02.835Z,8.59
2022-10-05T03:35:02.635Z,8.64
2022-10-05T03:40:03.254Z,8.67
2022-10-05T03:45:02.905Z,8.72
2022-10-05T03:50:02.545Z,8.68
2022-10-05T03:55:03.915Z,8.8
2022-10-05T04:00:03.118Z,8.84
2022-10-05T04:05:02.748Z,8.86
2022-10-05T04:10:02.520Z,8.66
2022-10-05T04:15:03.223Z,8.45
2022-10-05T04:20:02.908Z,8.28
2022-10-05T04:25:02.606Z,8.3
2022-10-05T04:30:03.506Z,8.42
2022-10-05T04:35:03.062Z,8.49
2022-10-05T04:40:02.799Z,8.71
2022-10-05T04:45:03.506Z,8.68
2022-10-05T04:50:03.067Z,8.63
2022-10-05T04:55:03.758Z,8.61
2022-10-05T05:00:02.631Z,8.64
2022-10-05T05:05:03.023Z,8.67
2022-10-05T05:10:02.657Z,8.69
2022-10-05T05:15:03.332Z,8.35
2022-10-05T05:20:03.015Z,7.97
2022-10-05T05:25:02.931Z,8.3
2022-10-05T05:30:03.330Z,8.53
2022-10-05T05:35:02.971Z,8.93
2022-10-05T05:40:02.621Z,9.14
2022-10-05T05:45:03.368Z,9.38
2022-10-05T05:50:07.915Z,9.65
2022-10-05T05:55:04.119Z,9.94
2022-10-05T06:00:03.382Z,10.31
2022-10-05T06:05:02.998Z,10.5
2022-10-05T06:10:02.705Z,10.77
2022-10-05T06:15:02.385Z,10.98
2022-10-05T06:20:06.040Z,11.03
2022-10-05T06:25:02.920Z,10.98
2022-10-05T06:30:02.857Z,11.64
2022-10-05T06:35:02.500Z,11.66
2022-10-05T06:40:03.279Z,12.56
2022-10-05T06:45:02.846Z,13.26
2022-10-05T06:50:03.444Z,13.75
2022-10-05T06:55:04.212Z,14.08
2022-10-05T07:00:02.769Z,14.07
2022-10-05T07:05:03.373Z,13.78
2022-10-05T07:10:03.057Z,13.6
2022-10-05T07:15:02.749Z,13.08
2022-10-05T07:20:03.421Z,13.77
2022-10-05T07:25:03.219Z,14.06
2022-10-05T07:30:02.817Z,14.01
2022-10-05T07:35:02.538Z,14.36
2022-10-05T07:40:03.162Z,14.39
2022-10-05T07:45:02.894Z,14.73
2022-10-05T07:50:02.805Z,15.58
2022-10-05T07:55:04.232Z,14.73
2022-10-05T08:00:02.940Z,14.72
2022-10-05T08:05:02.562Z,14.65
2022-10-05T08:10:02.440Z,14.74
2022-10-05T08:15:03.194Z,14.9
2022-10-05T08:20:02.911Z,14.73
2022-10-05T08:25:02.525Z,16.5
2022-10-05T08:30:03.255Z,17.18
2022-10-05T08:35:02.897Z,17.64
2022-10-05T08:40:02.536Z,17.52
2022-10-05T08:45:02.450Z,15.73
2022-10-05T08:50:03.042Z,15.76
2022-10-05T08:55:04.230Z,15.69
2022-10-05T09:00:02.414Z,16.4
2022-10-05T09:05:03.086Z,17.59
2022-10-05T09:10:02.877Z,18.36
2022-10-05T09:15:26.144Z,18.2
2022-10-05T09:20:02.677Z,18.22
2022-10-05T09:25:03.299Z,19.58
2022-10-05T09:30:03.144Z,18.29
2022-10-05T09:35:03.011Z,18.96
2022-10-05T09:40:02.417Z,18.3
2022-10-05T09:45:02.600Z,17.3
2022-10-05T09:50:03.191Z,17.2
2022-10-05T09:55:04.072Z,18.3
2022-10-05T10:00:02.658Z,19.64
2022-10-05T10:05:03.226Z,18.03
2022-10-05T10:10:02.911Z,18.76
2022-10-05T10:15:03.090Z,19.54
2022-10-05T10:20:03.420Z,19.51
2022-10-05T10:25:03.079Z,19.23
2022-10-05T10:30:02.834Z,19.14
2022-10-05T10:35:03.436Z,19.28
2022-10-05T10:40:03.142Z,19.38
2022-10-05T10:45:02.868Z,19.14
2022-10-05T10:50:02.562Z,19.46
2022-10-05T10:55:04.222Z,19.66
2022-10-05T11:00:02.812Z,19.9
2022-10-05T11:05:02.363Z,20.36
2022-10-05T11:10:02.901Z,20.25
2022-10-05T11:15:02.620Z,20.13
2022-10-05T11:20:05.366Z,20.46
2022-10-05T11:25:02.885Z,20.35
2022-10-05T11:30:02.615Z,20.43
2022-10-05T11:35:03.231Z,19.78
2022-10-05T11:40:02.908Z,19.98
2022-10-05T11:45:02.771Z,18.55
2022-10-05T11:50:02.433Z,17.85
2022-10-05T11:55:12.754Z,17.91
2022-10-05T12:00:02.486Z,18.66
2022-10-05T12:05:03.141Z,19.03
2022-10-05T12:10:02.801Z,19.45
2022-10-05T12:15:02.564Z,19.24
2022-10-05T12:20:03.314Z,19.4
2022-10-05T12:25:02.899Z,19.8
2022-10-05T12:30:02.754Z,20.51
2022-10-05T12:35:03.207Z,21.1
2022-10-05T12:40:03.441Z,20.49
2022-10-05T12:45:02.547Z,20.52
2022-10-05T12:50:03.198Z,21.05
2022-10-05T12:55:04.193Z,21.01
2022-10-05T13:00:02.599Z,20.79
2022-10-05T13:05:03.278Z,20.77
2022-10-05T13:10:02.915Z,21.2
2022-10-05T13:15:02.633Z,20.86
2022-10-05T13:20:03.326Z,20.59
2022-10-05T13:25:03.014Z,20.43
2022-10-05T13:30:02.726Z,20.76
2022-10-05T13:35:02.373Z,20.97
2022-10-05T13:40:03.046Z,20.76
2022-10-05T13:45:02.598Z,20.89
2022-10-05T13:50:03.248Z,20.62
2022-10-05T13:55:04.473Z,20.61
2022-10-05T14:00:02.833Z,20.68
2022-10-05T14:05:02.510Z,20.78
2022-10-05T14:10:03.155Z,21.4
2022-10-05T14:15:02.892Z,21.05
2022-10-05T14:20:02.643Z,20.96
2022-10-05T14:25:03.228Z,21
2022-10-05T14:30:02.907Z,20.89
2022-10-05T14:35:02.548Z,21.09
2022-10-05T14:40:03.765Z,21.04
2022-10-05T14:45:02.901Z,20.89
2022-10-05T14:50:02.580Z,20.86
2022-10-05T14:55:04.628Z,21.05
2022-10-05T15:00:02.975Z,20.75
2022-10-05T15:05:02.446Z,20.91
2022-10-05T15:10:03.450Z,20.95
2022-10-05T15:15:03.075Z,20.8
2022-10-05T15:20:02.715Z,20.86
2022-10-05T15:25:03.396Z,20.8
2022-10-05T15:30:03.164Z,20.88
2022-10-05T15:35:02.629Z,20.76
2022-10-05T15:40:03.291Z,20.54
2022-10-05T15:45:03.230Z,20.02
2022-10-05T15:50:02.811Z,18.88
2022-10-05T15:55:03.454Z,18.53
2022-10-05T16:00:03.190Z,18.25
2022-10-05T16:05:05.373Z,18.02
2022-10-05T16:10:02.672Z,17.95
2022-10-05T16:15:03.420Z,17.67
2022-10-05T16:20:03.092Z,17.55
2022-10-05T16:25:02.706Z,17.46
2022-10-05T16:30:03.400Z,17.07
2022-10-05T16:35:02.967Z,16.86
2022-10-05T16:40:02.563Z,16.59
2022-10-05T16:45:02.422Z,16.03
2022-10-05T16:50:03.128Z,15.62
2022-10-05T16:55:03.777Z,15.23
2022-10-05T17:00:03.379Z,14.97
2022-10-05T17:05:03.090Z,14.96
2022-10-05T17:10:02.842Z,16.22
2022-10-05T17:15:02.478Z,16.77
2022-10-05T17:20:03.490Z,16.89
2022-10-05T17:25:03.104Z,16.37
2022-10-05T17:30:02.696Z,15.84
2022-10-05T17:35:03.234Z,15.42
2022-10-05T17:40:02.870Z,15.36
2022-10-05T17:45:02.549Z,15.17
2022-10-05T17:50:03.313Z,15.11
2022-10-05T17:55:04.309Z,14.76
2022-10-05T18:00:03.070Z,14.45
2022-10-05T18:05:02.693Z,14.14
2022-10-05T18:10:02.326Z,13.95
2022-10-05T18:15:03.212Z,13.98
2022-10-05T18:20:02.945Z,14.03
2022-10-05T18:25:02.584Z,14.03
2022-10-05T18:30:02.531Z,13.98
2022-10-05T18:35:03.131Z,14.04
2022-10-05T18:40:02.911Z,14.23
2022-10-05T18:45:02.597Z,13.88
2022-10-05T18:50:03.250Z,13.9
2022-10-05T18:55:03.884Z,13.81
2022-10-05T19:00:02.699Z,14.17
2022-10-05T19:05:03.308Z,14.89
2022-10-05T19:10:03.249Z,14.98
2022-10-05T19:15:02.873Z,15.01
2022-10-05T19:20:02.553Z,14.91
2022-10-05T19:25:02.570Z,14.4
2022-10-05T19:30:03.228Z,14.53
2022-10-05T19:35:02.813Z,14.28
2022-10-05T19:40:07.354Z,14.63
2022-10-05T19:45:02.906Z,14.76
2022-10-05T19:50:03.175Z,14.95
2022-10-05T19:55:03.973Z,15.35
2022-10-05T20:00:02.621Z,15.54
2022-10-05T20:05:03.227Z,15.78
2022-10-05T20:10:02.900Z,16.39
2022-10-05T20:15:02.784Z,16.51
2022-10-05T20:20:02.956Z,16.45
2022-10-05T20:25:02.985Z,16.59
2022-10-05T20:30:02.880Z,16.42
2022-10-05T20:35:02.472Z,16.31
2022-10-05T20:40:03.213Z,16.11
2022-10-05T20:45:02.913Z,16.05
2022-10-05T20:50:02.524Z,16.12
2022-10-05T20:55:04.609Z,16.07
2022-10-05T21:00:02.754Z,15.97
2022-10-05T21:05:03.593Z,16.08
2022-10-05T21:10:03.127Z,16.02
2022-10-05T21:15:02.880Z,15.82
2022-10-05T21:20:03.452Z,15.66
2022-10-05T21:25:03.062Z,15.43
2022-10-05T21:30:02.765Z,15.34
2022-10-05T21:35:02.550Z,15.57
2022-10-05T21:40:03.181Z,15.42
2022-10-05T21:45:02.871Z,15.24
2022-10-05T21:50:02.506Z,15.01
2022-10-05T21:55:04.249Z,14.73
2022-10-05T22:00:03.349Z,14.62
2022-10-05T22:05:02.875Z,14.3
2022-10-05T22:10:02.526Z,13.67
2022-10-05T22:15:03.019Z,13.56
2022-10-05T22:20:02.692Z,13.64
2022-10-05T22:25:02.474Z,13.7
2022-10-05T22:30:03.191Z,13.62
2022-10-05T22:35:02.793Z,13.71
2022-10-05T22:40:02.648Z,13.66
2022-10-05T22:45:02.541Z,13.72
2022-10-05T22:50:02.953Z,13.59
2022-10-05T22:55:03.987Z,13.56
2022-10-05T23:00:03.360Z,13.48
2022-10-05T23:05:02.928Z,13.37
2022-10-05T23:10:02.669Z,13.2
2022-10-05T23:15:03.360Z,13.14
2022-10-05T23:20:03.009Z,13.2
2022-10-05T23:25:02.714Z,13.92
2022-10-05T23:30:02.418Z,14.72
2022-10-05T23:35:03.230Z,14.98
2022-10-05T23:40:02.854Z,14.98
2022-10-05T23:45:02.629Z,15.07
2022-10-05T23:50:02.415Z,15.22
2022-10-05T23:55:04.092Z,15.57
